Time;durP1;ratioP1;P1;durP2;ratioP2;P2;SDS_P1;SDS_P2;PMS_P1;PMS_P2;Temp;Humidity;BMP_temperature;BMP_pressure;BME280_temperature;BME280_humidity;BME280_pressure;Samples;Min_cycle;Max_cycle;Signal;HPM_P1;HPM_P2
2022/11/13 00:02:08;;;;;;;0.00;0.00;;;5.40;99.90;;;;;;5052452;28;20216;-73
2022/11/13 00:04:34;;;;;;;0.03;0.03;;;5.40;99.90;;;;;;5053119;28;20180;-74
2022/11/13 00:07:00;;;;;;;0.55;0.35;;;5.40;99.90;;;;;;5052479;28;20671;-72
2022/11/13 00:09:25;;;;;;;0.30;0.30;;;5.40;99.90;;;;;;5052833;28;20660;-72
2022/11/13 00:11:51;;;;;;;0.00;0.00;;;5.40;99.90;;;;;;5051383;28;20201;-72
2022/11/13 00:14:16;;;;;;;0.03;0.03;;;5.40;99.90;;;;;;5053422;28;20424;-73
2022/11/13 00:16:42;;;;;;;0.00;0.00;;;5.40;99.90;;;;;;5052707;28;20205;-73
2022/11/13 00:19:07;;;;;;;0.00;0.00;;;5.40;99.90;;;;;;5053053;28;20806;-73
2022/11/13 00:21:33;;;;;;;0.00;0.00;;;5.50;99.90;;;;;;5052952;28;20274;-73
2022/11/13 00:23:58;;;;;;;0.00;0.00;;;5.50;99.90;;;;;;5052357;28;20360;-73
2022/11/13 00:26:26;;;;;;;0.00;0.00;;;5.50;99.90;;;;;;5052717;28;20306;-72
2022/11/13 00:28:57;;;;;;;0.00;0.00;;;5.50;99.90;;;;;;5052820;28;20186;-72
2022/11/13 00:31:23;;;;;;;0.00;0.00;;;5.50;99.90;;;;;;5052404;28;20495;-73
2022/11/13 00:33:50;;;;;;;0.00;0.00;;;5.50;99.90;;;;;;5050716;28;20182;-73
2022/11/13 00:36:21;;;;;;;0.70;0.57;;;5.50;99.90;;;;;;5052047;28;20185;-72
2022/11/13 00:38:47;;;;;;;0.00;0.00;;;5.50;99.90;;;;;;5052938;28;20664;-72
2022/11/13 00:41:13;;;;;;;0.00;0.00;;;5.50;99.90;;;;;;5052556;28;20170;-73
2022/11/13 00:43:39;;;;;;;0.25;0.25;;;5.50;99.90;;;;;;5052415;28;20193;-73
2022/11/13 00:46:05;;;;;;;0.13;0.13;;;5.50;99.90;;;;;;5052337;28;20191;-72
2022/11/13 00:48:31;;;;;;;0.00;0.00;;;5.50;99.90;;;;;;5052759;28;20579;-73
2022/11/13 00:50:57;;;;;;;0.00;0.00;;;5.50;99.90;;;;;;5052599;28;20265;-72
2022/11/13 00:53:23;;;;;;;0.00;0.00;;;5.50;99.90;;;;;;5051879;28;20193;-73
2022/11/13 00:55:49;;;;;;;0.00;0.00;;;5.50;99.90;;;;;;5051872;28;20193;-73
2022/11/13 00:58:15;;;;;;;0.22;0.22;;;5.50;99.90;;;;;;5051915;28;20216;-72
2022/11/13 01:00:43;;;;;;;0.00;0.00;;;5.50;99.90;;;;;;5052027;28;20185;-72
2022/11/13 01:03:10;;;;;;;0.10;0.10;;;5.50;99.90;;;;;;5052293;28;20213;-72
2022/11/13 01:05:37;;;;;;;0.10;0.10;;;5.50;99.90;;;;;;5051732;28;20189;-74
2022/11/13 01:08:03;;;;;;;0.10;0.10;;;5.50;99.90;;;;;;5051682;28;20221;-73
2022/11/13 01:10:29;;;;;;;0.08;0.08;;;5.50;99.90;;;;;;5051879;28;20235;-73
2022/11/13 01:12:54;;;;;;;0.05;0.05;;;5.50;99.90;;;;;;5051753;28;20184;-72
2022/11/13 01:15:20;;;;;;;0.13;0.13;;;5.50;99.90;;;;;;5051661;28;20174;-72
2022/11/13 01:17:45;;;;;;;0.00;0.00;;;5.50;99.90;;;;;;5051510;28;20270;-72
2022/11/13 01:20:11;;;;;;;0.00;0.00;;;5.50;99.90;;;;;;5051504;28;20267;-72
2022/11/13 01:22:36;;;;;;;0.65;0.40;;;5.50;99.90;;;;;;5035678;28;20173;-72
2022/11/13 01:25:02;;;;;;;0.00;0.00;;;5.50;99.90;;;;;;5050392;28;20188;-73
2022/11/13 01:27:28;;;;;;;0.22;0.22;;;5.50;99.90;;;;;;5050787;28;20307;-73
2022/11/13 01:29:53;;;;;;;0.13;0.13;;;5.50;99.90;;;;;;5051590;28;20264;-73
2022/11/13 01:32:19;;;;;;;0.00;0.00;;;5.50;99.90;;;;;;5051368;28;20213;-73
2022/11/13 01:34:44;;;;;;;0.10;0.10;;;5.50;99.90;;;;;;5051576;28;20253;-72
2022/11/13 01:37:10;;;;;;;0.20;0.20;;;5.50;99.90;;;;;;5051449;28;20568;-71
2022/11/13 01:39:36;;;;;;;0.00;0.00;;;5.50;99.90;;;;;;5051656;28;20181;-73
2022/11/13 01:42:01;;;;;;;0.13;0.13;;;5.50;99.90;;;;;;5051239;28;20185;-72
2022/11/13 01:44:51;;;;;;;0.10;0.10;;;5.40;99.90;;;;;;5051030;28;20255;-73
2022/11/13 01:47:17;;;;;;;0.10;0.10;;;5.40;99.90;;;;;;5051668;28;20189;-72
2022/11/13 01:49:45;;;;;;;0.10;0.10;;;5.40;99.90;;;;;;5051629;28;20675;-72
2022/11/13 01:52:32;;;;;;;0.35;0.35;;;5.40;99.90;;;;;;5051413;28;20204;-72
2022/11/13 01:55:18;;;;;;;0.10;0.10;;;5.40;99.90;;;;;;5041753;28;20716;-72
2022/11/13 01:57:43;;;;;;;0.05;0.05;;;5.40;99.90;;;;;;5051052;28;20490;-73
2022/11/13 02:00:10;;;;;;;0.00;0.00;;;5.40;99.90;;;;;;5050831;28;20537;-72
2022/11/13 02:02:36;;;;;;;0.00;0.00;;;5.40;99.90;;;;;;5049675;28;20219;-73
2022/11/13 02:05:03;;;;;;;0.25;0.25;;;5.40;99.90;;;;;;5050965;28;20186;-73
2022/11/13 02:07:29;;;;;;;0.20;0.20;;;5.30;99.90;;;;;;5050999;28;20209;-73
2022/11/13 02:09:57;;;;;;;0.00;0.00;;;5.30;99.90;;;;;;5039298;28;20185;-72
2022/11/13 02:12:33;;;;;;;0.25;0.25;;;5.30;99.90;;;;;;5050539;28;20213;-72
2022/11/13 02:15:01;;;;;;;0.10;0.10;;;5.30;99.90;;;;;;5042150;28;20204;-73
2022/11/13 02:17:32;;;;;;;0.10;0.10;;;5.20;99.90;;;;;;5051064;28;20228;-73
2022/11/13 02:20:01;;;;;;;0.28;0.20;;;5.10;99.90;;;;;;5050977;28;20252;-73
2022/11/13 02:22:44;;;;;;;0.00;0.00;;;5.10;99.90;;;;;;5050918;28;20544;-73
2022/11/13 02:25:11;;;;;;;0.35;0.35;;;5.10;99.90;;;;;;5050802;28;20212;-72
2022/11/13 02:27:43;;;;;;;0.13;0.13;;;5.20;99.90;;;;;;5049796;28;20671;-74
2022/11/13 02:30:19;;;;;;;0.00;0.00;;;5.20;99.90;;;;;;5051064;28;20758;-73
2022/11/13 02:32:48;;;;;;;0.00;0.00;;;5.20;99.90;;;;;;5050653;28;20184;-73
2022/11/13 02:35:17;;;;;;;0.00;0.00;;;5.20;99.90;;;;;;5050539;28;20616;-73
2022/11/13 02:37:43;;;;;;;0.10;0.10;;;5.20;99.90;;;;;;5050648;28;20213;-72
2022/11/13 02:40:08;;;;;;;0.00;0.00;;;5.20;99.90;;;;;;5051079;28;20180;-72
2022/11/13 02:42:34;;;;;;;0.00;0.00;;;5.20;99.90;;;;;;5047327;28;20216;-72
2022/11/13 02:45:00;;;;;;;0.10;0.10;;;5.20;99.90;;;;;;5045072;28;20532;-72
2022/11/13 02:47:26;;;;;;;0.25;0.22;;;5.20;99.90;;;;;;5051054;28;20182;-71
2022/11/13 02:49:51;;;;;;;0.30;0.25;;;5.20;99.90;;;;;;5051064;28;20184;-72
2022/11/13 02:52:17;;;;;;;0.17;0.17;;;5.10;99.90;;;;;;5049349;28;20546;-72
2022/11/13 02:54:43;;;;;;;0.00;0.00;;;5.10;99.90;;;;;;5050651;28;20174;-72
2022/11/13 02:57:08;;;;;;;0.10;0.10;;;5.10;99.90;;;;;;5050518;28;20210;-72
2022/11/13 02:59:34;;;;;;;0.00;0.00;;;5.00;99.90;;;;;;5050528;28;20177;-72
2022/11/13 03:01:59;;;;;;;0.00;0.00;;;5.00;99.90;;;;;;5050780;28;20177;-72
2022/11/13 03:04:25;;;;;;;0.00;0.00;;;5.00;99.90;;;;;;5050517;28;20177;-72
2022/11/13 03:06:50;;;;;;;0.10;0.10;;;5.00;99.90;;;;;;5054105;28;20227;-72
2022/11/13 03:09:16;;;;;;;0.10;0.10;;;5.00;99.90;;;;;;5054426;28;20241;-72
2022/11/13 03:11:42;;;;;;;0.25;0.25;;;5.10;99.90;;;;;;5054318;28;20601;-72
2022/11/13 03:14:08;;;;;;;0.00;0.00;;;5.10;99.90;;;;;;5053921;28;20186;-72
2022/11/13 03:16:35;;;;;;;0.08;0.08;;;5.10;99.90;;;;;;5054216;28;20521;-72
2022/11/13 03:19:00;;;;;;;0.00;0.00;;;5.10;99.90;;;;;;5053561;28;20644;-72
2022/11/13 03:21:26;;;;;;;0.10;0.10;;;5.10;99.90;;;;;;5053550;28;20189;-72
2022/11/13 03:23:53;;;;;;;0.10;0.10;;;5.20;99.90;;;;;;5053907;28;20205;-72
2022/11/13 03:26:18;;;;;;;0.03;0.03;;;5.20;99.90;;;;;;5053567;28;20188;-72
2022/11/13 03:28:44;;;;;;;0.17;0.17;;;5.20;99.90;;;;;;5053542;28;20533;-72
2022/11/13 03:31:10;;;;;;;0.00;0.00;;;5.20;99.90;;;;;;5053630;28;20204;-72
2022/11/13 03:33:35;;;;;;;0.00;0.00;;;5.20;99.90;;;;;;5051038;28;20617;-73
2022/11/13 03:36:01;;;;;;;0.00;0.00;;;5.20;99.90;;;;;;5053523;28;20671;-72
2022/11/13 03:38:26;;;;;;;0.00;0.00;;;5.20;99.90;;;;;;5053467;28;20640;-72
2022/11/13 03:40:52;;;;;;;0.05;0.05;;;5.20;99.90;;;;;;5053279;28;20254;-72
2022/11/13 03:43:18;;;;;;;1.40;0.35;;;5.30;99.90;;;;;;5053598;28;20249;-72
2022/11/13 03:45:45;;;;;;;0.00;0.00;;;5.30;99.90;;;;;;5053131;28;20186;-72
2022/11/13 03:48:12;;;;;;;0.00;0.00;;;5.30;99.90;;;;;;5053686;28;20181;-72
2022/11/13 03:50:38;;;;;;;0.00;0.00;;;5.30;99.90;;;;;;5053077;28;20173;-72
2022/11/13 03:53:04;;;;;;;0.15;0.15;;;5.30;99.90;;;;;;5052731;28;20200;-72
2022/11/13 03:55:29;;;;;;;0.00;0.00;;;5.30;99.90;;;;;;5053712;28;20177;-72
2022/11/13 03:57:55;;;;;;;0.00;0.00;;;5.30;99.90;;;;;;5053021;28;20225;-71
2022/11/13 04:00:20;;;;;;;0.20;0.20;;;5.40;99.90;;;;;;5053045;28;20185;-72
2022/11/13 04:02:46;;;;;;;0.00;0.00;;;5.40;99.90;;;;;;5053582;28;20188;-72
2022/11/13 04:05:11;;;;;;;0.10;0.10;;;5.40;99.90;;;;;;5051943;28;20208;-72
2022/11/13 04:07:37;;;;;;;0.00;0.00;;;5.40;99.90;;;;;;5052657;28;20753;-72
2022/11/13 04:10:03;;;;;;;0.22;0.22;;;5.40;99.90;;;;;;5053102;28;20268;-73
2022/11/13 04:12:29;;;;;;;0.00;0.00;;;5.30;99.90;;;;;;5053282;28;20550;-73
2022/11/13 04:14:54;;;;;;;0.10;0.10;;;5.30;99.90;;;;;;5053299;28;20173;-73
2022/11/13 04:17:20;;;;;;;0.15;0.15;;;5.30;99.90;;;;;;5051823;28;20723;-73
2022/11/13 04:19:45;;;;;;;0.00;0.00;;;5.20;99.90;;;;;;5052770;28;20181;-73
2022/11/13 04:22:11;;;;;;;0.00;0.00;;;5.20;99.90;;;;;;5052718;28;20182;-73
2022/11/13 04:24:36;;;;;;;0.70;0.10;;;5.20;99.90;;;;;;5053068;28;20177;-74
2022/11/13 04:27:02;;;;;;;0.20;0.20;;;5.20;99.90;;;;;;5052609;28;20189;-73
2022/11/13 04:29:28;;;;;;;0.10;0.10;;;5.20;99.90;;;;;;5052395;28;20204;-73
2022/11/13 04:31:53;;;;;;;0.00;0.00;;;5.20;99.90;;;;;;5052919;28;20189;-72
2022/11/13 04:34:19;;;;;;;0.00;0.00;;;5.10;99.90;;;;;;5052623;28;20186;-72
2022/11/13 04:36:44;;;;;;;0.00;0.00;;;5.10;99.90;;;;;;5052653;28;20538;-73
2022/11/13 04:39:10;;;;;;;0.10;0.10;;;5.10;99.90;;;;;;5052682;28;20672;-72
2022/11/13 04:44:19;;;;;;;0.00;0.00;;;5.10;99.90;;;;;;5052060;28;20193;-72
2022/11/13 04:46:45;;;;;;;0.00;0.00;;;5.10;99.90;;;;;;5052546;28;20189;-71
2022/11/13 04:49:10;;;;;;;0.15;0.15;;;5.10;99.90;;;;;;5052295;28;20185;-72
2022/11/13 04:51:36;;;;;;;0.00;0.00;;;5.10;99.90;;;;;;5052081;28;20629;-73
2022/11/13 04:54:02;;;;;;;0.00;0.00;;;5.00;99.90;;;;;;5052561;28;20649;-72
2022/11/13 04:56:27;;;;;;;0.00;0.00;;;5.00;99.90;;;;;;5051987;28;20182;-73
2022/11/13 04:58:53;;;;;;;0.00;0.00;;;5.00;99.90;;;;;;5052235;28;20186;-73
2022/11/13 05:01:18;;;;;;;0.10;0.10;;;5.00;99.90;;;;;;5051870;28;20204;-73
2022/11/13 05:03:44;;;;;;;0.00;0.00;;;5.00;99.90;;;;;;5052216;28;20654;-72
2022/11/13 05:06:10;;;;;;;0.32;0.32;;;5.00;99.90;;;;;;5051112;28;20189;-73
2022/11/13 05:08:36;;;;;;;0.00;0.00;;;5.10;99.90;;;;;;5051858;28;20573;-73
2022/11/13 05:11:02;;;;;;;0.15;0.15;;;5.10;99.90;;;;;;5051542;28;20193;-73
2022/11/13 05:13:33;;;;;;;0.47;0.43;;;5.10;99.90;;;;;;5051940;28;20534;-72
2022/11/13 05:16:00;;;;;;;0.10;0.10;;;5.10;99.90;;;;;;5051467;28;20189;-73
2022/11/13 05:18:26;;;;;;;0.00;0.00;;;5.10;99.90;;;;;;5051868;28;20212;-73
2022/11/13 05:20:51;;;;;;;0.10;0.10;;;5.10;99.90;;;;;;5051743;28;20581;-73
2022/11/13 05:23:17;;;;;;;0.05;0.05;;;5.10;99.90;;;;;;5051661;28;20178;-73
2022/11/13 05:25:42;;;;;;;0.00;0.00;;;5.10;99.90;;;;;;5051685;28;20568;-73
2022/11/13 05:28:08;;;;;;;0.32;0.32;;;5.10;99.90;;;;;;5051369;28;20662;-73
2022/11/13 05:30:33;;;;;;;0.10;0.10;;;5.10;99.90;;;;;;5051716;28;20227;-73
2022/11/13 05:32:59;;;;;;;0.20;0.20;;;5.10;99.90;;;;;;5051457;28;20181;-72
2022/11/13 05:35:24;;;;;;;0.00;0.00;;;5.10;99.90;;;;;;5050218;28;20182;-73
2022/11/13 05:37:50;;;;;;;0.00;0.00;;;5.10;99.90;;;;;;5050974;28;20573;-73
2022/11/13 05:40:15;;;;;;;0.00;0.00;;;5.10;99.90;;;;;;5043743;28;20177;-73
2022/11/13 05:42:41;;;;;;;0.00;0.00;;;5.00;99.90;;;;;;5051639;28;20185;-72
2022/11/13 05:45:07;;;;;;;0.40;0.40;;;5.00;99.90;;;;;;5051324;28;20655;-72
2022/11/13 05:47:33;;;;;;;0.00;0.00;;;5.00;99.90;;;;;;5051432;28;20716;-72
2022/11/13 05:49:58;;;;;;;0.20;0.20;;;5.00;99.90;;;;;;5051221;28;20273;-73
2022/11/13 05:52:24;;;;;;;0.22;0.22;;;4.90;99.90;;;;;;5051492;28;20185;-73
2022/11/13 05:54:49;;;;;;;0.00;0.00;;;4.90;99.90;;;;;;5051386;28;20536;-73
2022/11/13 05:57:15;;;;;;;0.00;0.00;;;5.00;99.90;;;;;;5051334;28;20558;-72
2022/11/13 05:59:40;;;;;;;0.13;0.13;;;5.00;99.90;;;;;;5050636;28;20715;-72
2022/11/13 06:02:06;;;;;;;0.00;0.00;;;5.00;99.90;;;;;;5051214;28;20640;-72
2022/11/13 06:04:31;;;;;;;0.00;0.00;;;4.90;99.90;;;;;;5051312;28;20185;-73
2022/11/13 06:06:57;;;;;;;0.00;0.00;;;4.90;99.90;;;;;;5051268;28;20173;-72
2022/11/13 06:09:22;;;;;;;0.10;0.10;;;4.90;99.90;;;;;;5051728;28;20225;-73
2022/11/13 06:11:48;;;;;;;0.00;0.00;;;4.90;99.90;;;;;;5050756;28;20205;-73
2022/11/13 06:14:13;;;;;;;0.00;0.00;;;4.90;99.90;;;;;;5051345;28;20514;-72
2022/11/13 06:16:39;;;;;;;0.00;0.00;;;4.80;99.90;;;;;;5050767;28;20704;-73
2022/11/13 06:19:07;;;;;;;0.05;0.05;;;4.80;99.90;;;;;;5051201;28;20717;-73
2022/11/13 06:21:35;;;;;;;0.00;0.00;;;4.80;99.90;;;;;;5050831;28;20181;-72
2022/11/13 06:24:01;;;;;;;0.00;0.00;;;4.70;99.90;;;;;;5051406;28;20684;-72
2022/11/13 06:26:30;;;;;;;0.20;0.20;;;4.70;99.90;;;;;;5051069;28;20228;-72
2022/11/13 06:28:57;;;;;;;0.10;0.10;;;4.60;99.90;;;;;;5051245;28;20213;-71
2022/11/13 06:31:26;;;;;;;0.10;0.10;;;4.60;99.90;;;;;;5050845;28;20184;-72
2022/11/13 06:33:52;;;;;;;0.10;0.10;;;4.60;99.90;;;;;;5051018;28;20177;-72
2022/11/13 06:36:22;;;;;;;0.00;0.00;;;4.50;99.90;;;;;;5051303;28;20239;-72
2022/11/13 06:38:48;;;;;;;0.00;0.00;;;4.50;99.90;;;;;;5051017;28;20239;-72
2022/11/13 06:41:17;;;;;;;0.00;0.00;;;4.40;99.90;;;;;;5053756;28;20186;-73
2022/11/13 06:43:42;;;;;;;0.00;0.00;;;4.40;99.90;;;;;;5054528;28;20181;-72
2022/11/13 06:46:16;;;;;;;0.00;0.00;;;4.40;99.90;;;;;;5054698;28;20169;-72
2022/11/13 06:48:42;;;;;;;0.00;0.00;;;4.40;99.90;;;;;;5055035;28;20185;-71
2022/11/13 06:51:13;;;;;;;0.00;0.00;;;4.40;99.90;;;;;;5054722;28;20185;-72
2022/11/13 06:53:38;;;;;;;0.22;0.22;;;4.40;99.90;;;;;;5054700;28;20186;-72
2022/11/13 06:56:05;;;;;;;0.00;0.00;;;4.30;99.90;;;;;;5054463;28;20193;-72
2022/11/13 06:58:32;;;;;;;0.00;0.00;;;4.30;99.90;;;;;;5054695;28;20296;-72
2022/11/13 07:01:03;;;;;;;0.00;0.00;;;4.30;99.90;;;;;;5054005;28;20215;-72
2022/11/13 07:03:28;;;;;;;0.00;0.00;;;4.30;99.90;;;;;;5050832;28;20178;-72
2022/11/13 07:05:54;;;;;;;0.00;0.00;;;4.30;99.90;;;;;;5054097;28;20186;-71
2022/11/13 07:08:19;;;;;;;0.00;0.00;;;4.40;99.90;;;;;;5054276;28;20224;-72
2022/11/13 07:10:53;;;;;;;0.25;0.10;;;4.40;99.90;;;;;;5054765;28;20200;-72
2022/11/13 07:13:19;;;;;;;0.00;0.00;;;4.40;99.90;;;;;;5053989;28;20657;-72
2022/11/13 07:15:45;;;;;;;0.00;0.00;;;4.40;99.90;;;;;;5053866;28;20189;-72
2022/11/13 07:18:11;;;;;;;0.52;0.52;;;4.40;99.90;;;;;;5054404;28;20224;-72
2022/11/13 07:20:37;;;;;;;0.00;0.00;;;4.40;99.90;;;;;;5053918;28;20185;-72
2022/11/13 07:23:03;;;;;;;0.00;0.00;;;4.50;99.90;;;;;;5054273;28;20651;-72
2022/11/13 07:25:29;;;;;;;0.17;0.17;;;4.50;99.90;;;;;;5054030;28;20209;-72
2022/11/13 07:27:55;;;;;;;0.00;0.00;;;4.50;99.90;;;;;;5053565;28;20186;-71
2022/11/13 07:30:21;;;;;;;0.00;0.00;;;4.50;99.90;;;;;;5054085;28;20236;-72
2022/11/13 07:32:48;;;;;;;0.40;0.40;;;4.60;99.90;;;;;;5053653;28;20184;-72
2022/11/13 07:35:13;;;;;;;0.08;0.08;;;4.70;99.90;;;;;;5053944;28;20181;-72
2022/11/13 07:37:39;;;;;;;0.05;0.05;;;4.90;99.90;;;;;;5053935;28;20228;-71
2022/11/13 07:40:05;;;;;;;0.10;0.10;;;5.00;99.90;;;;;;5053361;28;20189;-72
2022/11/13 07:42:31;;;;;;;0.30;0.30;;;5.00;99.90;;;;;;5053834;28;20190;-72
2022/11/13 07:44:57;;;;;;;0.10;0.10;;;5.10;99.90;;;;;;5053313;28;20685;-72
2022/11/13 07:47:23;;;;;;;0.10;0.10;;;5.10;99.90;;;;;;5053991;28;20174;-73
2022/11/13 07:49:48;;;;;;;0.00;0.00;;;5.10;99.90;;;;;;5054221;28;20551;-73
2022/11/13 07:52:14;;;;;;;0.00;0.00;;;5.10;99.90;;;;;;5052542;28;20185;-72
2022/11/13 07:54:40;;;;;;;0.00;0.00;;;5.10;99.90;;;;;;5052685;28;20671;-73
2022/11/13 07:57:06;;;;;;;0.00;0.00;;;5.10;99.90;;;;;;5053135;28;20205;-74
2022/11/13 07:59:31;;;;;;;0.10;0.10;;;5.10;99.90;;;;;;5053540;28;20201;-72
2022/11/13 08:01:57;;;;;;;0.00;0.00;;;5.10;99.90;;;;;;5053234;28;20185;-72
2022/11/13 08:04:23;;;;;;;1.08;0.40;;;5.10;99.90;;;;;;5052875;28;20260;-72
2022/11/13 08:06:48;;;;;;;0.00;0.00;;;5.10;99.90;;;;;;5053301;28;20190;-75
2022/11/13 08:09:14;;;;;;;0.17;0.17;;;5.20;99.90;;;;;;5052950;28;20233;-75
2022/11/13 08:11:39;;;;;;;0.00;0.00;;;5.30;99.90;;;;;;5053119;28;20182;-74
2022/11/13 08:14:05;;;;;;;0.00;0.00;;;5.60;99.90;;;;;;5052765;28;20180;-74
2022/11/13 08:16:30;;;;;;;0.50;0.40;;;5.90;99.90;;;;;;5053327;28;20594;-73
2022/11/13 08:18:56;;;;;;;0.00;0.00;;;6.30;99.90;;;;;;5053662;28;20186;-75
2022/11/13 08:21:22;;;;;;;0.00;0.00;;;6.70;99.90;;;;;;5051201;28;20636;-75
2022/11/13 08:23:49;;;;;;;0.00;0.00;;;7.10;99.90;;;;;;5053282;28;20182;-75
2022/11/13 08:26:16;;;;;;;0.00;0.00;;;7.30;99.90;;;;;;5052374;28;20177;-73
2022/11/13 08:28:42;;;;;;;0.00;0.00;;;7.50;99.90;;;;;;5052537;28;20174;-71
2022/11/13 08:31:12;;;;;;;0.00;0.00;;;7.80;99.90;;;;;;5053053;28;20180;-73
2022/11/13 08:33:38;;;;;;;0.00;0.00;;;7.90;99.90;;;;;;5053242;28;20169;-73
2022/11/13 08:36:04;;;;;;;0.10;0.10;;;7.80;99.90;;;;;;5052982;28;20235;-71
2022/11/13 08:38:29;;;;;;;0.00;0.00;;;7.80;99.90;;;;;;5053131;28;20613;-72
2022/11/13 08:41:00;;;;;;;0.00;0.00;;;7.70;99.90;;;;;;5052554;28;20743;-72
2022/11/13 08:43:26;;;;;;;0.22;0.22;;;7.70;99.90;;;;;;5038831;28;20180;-72
2022/11/13 08:45:51;;;;;;;0.10;0.10;;;7.60;99.90;;;;;;5053239;28;20187;-72
2022/11/13 08:48:17;;;;;;;0.00;0.00;;;7.60;99.90;;;;;;5052726;28;20655;-72
2022/11/13 08:50:43;;;;;;;0.00;0.00;;;7.60;99.90;;;;;;5052729;28;20192;-72
2022/11/13 08:53:09;;;;;;;0.05;0.05;;;7.50;99.90;;;;;;5052942;28;20177;-71
2022/11/13 08:55:34;;;;;;;0.00;0.00;;;7.50;99.90;;;;;;5051734;28;20512;-68
2022/11/13 08:58:01;;;;;;;0.00;0.00;;;7.50;99.90;;;;;;5052541;28;20216;-73
2022/11/13 09:00:28;;;;;;;0.75;0.75;;;7.60;99.90;;;;;;5052219;28;20181;-75
2022/11/13 09:02:56;;;;;;;0.00;0.00;;;7.70;99.90;;;;;;5051629;28;20277;-74
2022/11/13 09:05:22;;;;;;;0.00;0.00;;;7.80;99.90;;;;;;5052340;28;20177;-75
2022/11/13 09:07:48;;;;;;;0.00;0.00;;;7.90;99.90;;;;;;5052243;28;20723;-75
2022/11/13 09:10:14;;;;;;;0.00;0.00;;;8.00;99.90;;;;;;5052349;28;20216;-71
2022/11/13 09:12:39;;;;;;;0.00;0.00;;;8.10;99.90;;;;;;5050782;28;20188;-71
2022/11/13 09:15:05;;;;;;;0.00;0.00;;;8.20;99.90;;;;;;5052107;28;20178;-72
2022/11/13 09:17:31;;;;;;;0.35;0.35;;;8.30;99.90;;;;;;5052277;28;20206;-72
2022/11/13 09:19:57;;;;;;;0.00;0.00;;;8.30;99.90;;;;;;5050369;28;20181;-71
2022/11/13 09:22:22;;;;;;;0.00;0.00;;;8.30;99.90;;;;;;5051955;28;20174;-71
2022/11/13 09:24:48;;;;;;;0.00;0.00;;;8.40;99.90;;;;;;5051740;28;20185;-71
2022/11/13 09:27:13;;;;;;;0.00;0.00;;;8.40;99.90;;;;;;5051884;28;20220;-71
2022/11/13 09:29:39;;;;;;;0.13;0.10;;;8.40;99.90;;;;;;5051761;28;20177;-73
2022/11/13 09:32:05;;;;;;;0.20;0.20;;;8.50;99.90;;;;;;5051631;28;20264;-71
2022/11/13 09:34:32;;;;;;;0.00;0.00;;;8.50;99.90;;;;;;5051383;28;20185;-69
2022/11/13 09:36:58;;;;;;;0.20;0.20;;;8.60;99.90;;;;;;5050906;28;20205;-71
2022/11/13 09:39:24;;;;;;;0.00;0.00;;;8.70;99.90;;;;;;5051657;28;20188;-71
2022/11/13 09:41:59;;;;;;;0.00;0.00;;;8.60;99.90;;;;;;5051809;28;20173;-71
2022/11/13 09:44:40;;;;;;;0.00;0.00;;;8.70;99.90;;;;;;5051674;28;20668;-71
2022/11/13 09:47:20;;;;;;;0.20;0.20;;;8.80;99.90;;;;;;5050410;28;20181;-71
2022/11/13 09:50:00;;;;;;;0.05;0.05;;;8.90;99.90;;;;;;5051915;28;20185;-71
2022/11/13 09:52:34;;;;;;;0.00;0.00;;;9.10;99.90;;;;;;5051478;28;20300;-71
2022/11/13 09:54:59;;;;;;;0.00;0.00;;;9.30;99.90;;;;;;5051120;28;20209;-71
2022/11/13 09:57:38;;;;;;;0.05;0.05;;;9.50;99.90;;;;;;5050059;28;20232;-71
2022/11/13 10:00:18;;;;;;;0.00;0.00;;;9.80;99.90;;;;;;5051474;28;20228;-71
2022/11/13 10:02:49;;;;;;;0.00;0.00;;;10.30;99.90;;;;;;5051551;28;20181;-71
2022/11/13 10:05:26;;;;;;;0.00;0.00;;;10.80;99.90;;;;;;5037861;28;20273;-70
2022/11/13 10:08:01;;;;;;;0.00;0.00;;;11.20;99.90;;;;;;5051534;28;20733;-71
2022/11/13 10:10:43;;;;;;;0.00;0.00;;;11.60;99.90;;;;;;5051407;28;20220;-71
2022/11/13 10:13:17;;;;;;;0.00;0.00;;;11.90;99.90;;;;;;5051152;28;20177;-71
2022/11/13 10:15:45;;;;;;;0.00;0.00;;;12.00;99.90;;;;;;5053203;28;20667;-71
2022/11/13 10:18:28;;;;;;;0.03;0.03;;;12.00;99.90;;;;;;5055208;28;20217;-71
2022/11/13 10:21:01;;;;;;;0.00;0.00;;;11.90;99.90;;;;;;5055246;28;20235;-70
2022/11/13 10:23:36;;;;;;;0.00;0.00;;;11.80;99.90;;;;;;5055067;28;20189;-71
2022/11/13 10:26:20;;;;;;;0.00;0.00;;;11.80;99.90;;;;;;5055313;28;20183;-71
2022/11/13 10:28:46;;;;;;;0.00;0.00;;;11.70;99.90;;;;;;5055046;28;20170;-71
2022/11/13 10:31:12;;;;;;;0.03;0.03;;;11.60;99.90;;;;;;5055197;28;20235;-71
2022/11/13 10:33:38;;;;;;;0.10;0.10;;;11.60;99.90;;;;;;5054358;28;20182;-71
2022/11/13 10:36:20;;;;;;;0.15;0.15;;;11.50;99.90;;;;;;5055164;28;20216;-71
2022/11/13 10:39:04;;;;;;;0.00;0.00;;;11.50;99.90;;;;;;5055047;28;20676;-71
2022/11/13 10:41:29;;;;;;;0.00;0.00;;;11.50;99.90;;;;;;5054929;28;20660;-70
2022/11/13 10:44:04;;;;;;;0.00;0.00;;;11.40;99.90;;;;;;5053681;28;20192;-70
2022/11/13 10:46:30;;;;;;;0.00;0.00;;;11.40;99.90;;;;;;5053833;28;20623;-71
2022/11/13 10:48:57;;;;;;;0.00;0.00;;;11.40;99.90;;;;;;5054628;28;20230;-71
2022/11/13 10:51:27;;;;;;;0.00;0.00;;;11.30;99.90;;;;;;5054669;28;20185;-71
2022/11/13 10:53:53;;;;;;;0.00;0.00;;;11.40;99.90;;;;;;5039328;28;20177;-71
2022/11/13 10:56:25;;;;;;;0.03;0.03;;;11.40;99.90;;;;;;5054733;28;20186;-71
2022/11/13 10:59:17;;;;;;;0.00;0.00;;;11.50;99.90;;;;;;5054538;28;20217;-70
2022/11/13 11:01:45;;;;;;;0.03;0.03;;;11.60;99.90;;;;;;5053426;28;20185;-70
2022/11/13 11:04:18;;;;;;;0.00;0.00;;;11.60;99.90;;;;;;5053231;28;20516;-70
2022/11/13 11:06:45;;;;;;;0.00;0.00;;;11.60;99.90;;;;;;5054461;28;20659;-70
2022/11/13 11:09:26;;;;;;;0.00;0.00;;;11.80;99.90;;;;;;5052639;28;20647;-70
2022/11/13 11:12:20;;;;;;;0.00;0.00;;;11.90;99.90;;;;;;5052897;28;20185;-70
2022/11/13 11:14:57;;;;;;;0.00;0.00;;;12.00;99.90;;;;;;5052590;28;20177;-70
2022/11/13 11:17:47;;;;;;;0.00;0.00;;;12.00;99.90;;;;;;5053326;28;20216;-71
2022/11/13 11:20:19;;;;;;;0.00;0.00;;;12.10;99.90;;;;;;5048210;28;20209;-70
2022/11/13 11:22:56;;;;;;;0.00;0.00;;;12.20;99.90;;;;;;5052928;28;20221;-70
2022/11/13 11:25:28;;;;;;;0.00;0.00;;;12.20;99.90;;;;;;5048764;28;20235;-71
2022/11/13 11:28:01;;;;;;;0.00;0.00;;;12.30;99.90;;;;;;5042499;28;20170;-70
2022/11/13 11:30:31;;;;;;;0.00;0.00;;;12.30;99.90;;;;;;5044686;28;20255;-70
2022/11/13 11:33:20;;;;;;;0.00;0.00;;;12.40;99.90;;;;;;5056401;28;20177;-69
2022/11/13 11:35:59;;;;;;;0.00;0.00;;;12.50;99.90;;;;;;5052854;28;20205;-70
2022/11/13 11:39:02;;;;;;;0.00;0.00;;;12.60;99.90;;;;;;5052629;28;20213;-70
2022/11/13 11:41:35;;;;;;;0.00;0.00;;;12.70;99.90;;;;;;5052879;28;20612;-70
2022/11/13 11:44:21;;;;;;;0.00;0.00;;;12.80;99.90;;;;;;5052350;28;20537;-70
2022/11/13 11:46:46;;;;;;;0.00;0.00;;;12.80;99.90;;;;;;5052860;28;20185;-71
2022/11/13 11:49:12;;;;;;;0.00;0.00;;;12.90;99.90;;;;;;5053901;28;20182;-70
2022/11/13 11:51:42;;;;;;;0.03;0.03;;;13.00;99.90;;;;;;5052534;28;20186;-70
2022/11/13 11:54:40;;;;;;;0.00;0.00;;;12.90;99.90;;;;;;5052327;28;20185;-70
2022/11/13 11:57:32;;;;;;;0.05;0.05;;;12.80;99.90;;;;;;5052387;28;20201;-71
2022/11/13 12:00:05;;;;;;;0.00;0.00;;;12.80;99.90;;;;;;5050935;28;20272;-71
2022/11/13 12:02:42;;;;;;;0.00;0.00;;;12.80;99.90;;;;;;5052424;28;20205;-71
2022/11/13 12:05:17;;;;;;;0.00;0.00;;;12.80;99.90;;;;;;5052292;28;20209;-71
2022/11/13 12:08:04;;;;;;;0.10;0.10;;;12.80;99.90;;;;;;5013689;28;1060688;-71
2022/11/13 12:10:59;;;;;;;0.10;0.10;;;12.70;99.90;;;;;;5053671;28;20268;-71
2022/11/13 12:13:52;;;;;;;0.00;0.00;;;12.60;99.90;;;;;;5045696;28;20335;-71
2022/11/13 12:16:33;;;;;;;0.10;0.10;;;12.50;99.90;;;;;;5052311;28;20469;-71
2022/11/13 12:19:02;;;;;;;0.00;0.00;;;12.50;99.90;;;;;;5053306;28;20224;-71
2022/11/13 12:21:50;;;;;;;0.20;0.20;;;12.50;99.90;;;;;;5053443;28;20276;-71
2022/11/13 12:24:41;;;;;;;0.00;0.00;;;12.50;99.90;;;;;;5053438;28;20232;-71
2022/11/13 12:27:17;;;;;;;0.00;0.00;;;12.40;99.90;;;;;;5049678;28;20193;-70
2022/11/13 12:30:10;;;;;;;0.10;0.10;;;12.30;99.90;;;;;;5053195;28;20177;-69
2022/11/13 12:33:05;;;;;;;0.03;0.03;;;12.30;99.90;;;;;;5053362;28;20169;-70
2022/11/13 12:35:31;;;;;;;0.00;0.00;;;12.30;99.90;;;;;;5053240;28;20172;-70
2022/11/13 12:38:09;;;;;;;0.30;0.05;;;12.30;99.90;;;;;;5052326;28;20217;-71
2022/11/13 12:40:49;;;;;;;0.70;0.20;;;12.40;99.90;;;;;;5053057;28;20692;-72
2022/11/13 12:43:44;;;;;;;0.00;0.00;;;12.60;99.90;;;;;;5052943;28;20663;-73
2022/11/13 12:46:11;;;;;;;0.00;0.00;;;12.70;99.90;;;;;;5052837;28;20236;-72
2022/11/13 12:48:45;;;;;;;0.00;0.00;;;12.60;99.90;;;;;;5052578;28;20169;-72
2022/11/13 12:51:13;;;;;;;0.00;0.00;;;12.60;99.90;;;;;;5052414;28;20192;-73
2022/11/13 12:53:57;;;;;;;0.08;0.08;;;12.60;99.90;;;;;;5052704;28;20182;-72
2022/11/13 12:56:28;;;;;;;0.00;0.00;;;12.60;99.90;;;;;;5051317;28;20182;-69
2022/11/13 12:58:56;;;;;;;0.00;0.00;;;12.70;99.90;;;;;;5052364;28;20699;-67
2022/11/13 13:01:25;;;;;;;0.00;0.00;;;12.60;99.90;;;;;;5052555;28;20220;-68
2022/11/13 13:04:02;;;;;;;0.05;0.05;;;12.60;99.90;;;;;;5052332;28;20208;-67
2022/11/13 13:06:57;;;;;;;0.00;0.00;;;12.60;99.90;;;;;;5052710;28;20661;-61
2022/11/13 13:09:57;;;;;;;0.00;0.00;;;12.60;99.90;;;;;;5042975;28;20266;-67